Terminal Aerodrome Forecast
Issued by NWS Charleston, WV

Current Version | Previous Version | Graphics & Text | Print | Product List | Glossary On
Versions: 1 2 3 4 5 6 7 8 9 10 11 12 13 14 15 16 17 18 19 20 21 22 23
402
FTUS41 KRLX 270536
TAFHTS
TAF
KHTS 270536Z 2706/2806 VRB04KT P6SM FEW150
     FM270900 VRB03KT 5SM BR FEW200
     FM271200 22004KT P6SM SKC
     FM271500 22007KT P6SM SKC
     FM280200 00000KT P6SM SKC=

USA.gov is the U.S. government's official web portal to all federal, state and local government web resources and services.